CheckWX is a tool to help pilots better visualize weather data.  It is not intended as a substitute for an official pre-flight weather briefing.

05:09:21 UTC

KMKE METAR
General Mitchell International Airport
Milwaukee, Wisconsin, USA
Current

1 hour ago

KMKE 240352Z 11013KT 1/4SM R01L/P6000FT RA BR OVC002 02/01 A2937 RMK AO2 SFC VIS 1 1/2 LTG DSNT E DZE22RAB22 PRESFR SLP951 P0006 T00220011 $
Observed
Feb-24 @ 03:52 UTC
Wind
  • 110° at 13 KTS
Visibility
1/4 SM
Flight Rules
LIFR
Conditions
Rain, Mist
Cloud Levels
  • Overcast at 200' AGL
Temperature
C / 36°F
Dewpoint
C / 34°F
Humidity
93%
Altimeter
29.37" Hg
Pressure
995.1 hPa
Current Rain
0.06"
Previous

2 hours ago

KMKE 240252Z 09014KT 1/4SM R01L/2400V3500FT -DZ FG VV002 02/01 A2945 RMK AO2 SFC VIS 1/2 LTG DSNT SE AND S DZB44 PRESFR SLP978 P0001 60001 T00170006 58078 $
Observed
Feb-24 @ 02:52 UTC
Wind
  • 090° at 14 KTS
Visibility
1/4 SM
Flight Rules
LIFR
Conditions
Light Drizzle, Fog
Cloud Levels
  • Vertical visibility at 200' AGL
Temperature
C / 36°F
Dewpoint
C / 34°F
Humidity
93%
Altimeter
29.45" Hg
Pressure
997.8 hPa
Current Rain
0.01"
Previous

2 hours ago

KMKE 240245Z 10014KT 1/4SM R01L/2000V2800FT -DZ FG VV002 02/01 A2946 RMK AO2 LTG DSNT S DZB44 PRESFR P0001 T00170006 $
Observed
Feb-24 @ 02:45 UTC
Wind
  • 100° at 14 KTS
Visibility
1/4 SM
Flight Rules
LIFR
Conditions
Light Drizzle, Fog
Cloud Levels
  • Vertical visibility at 200' AGL
Temperature
C / 36°F
Dewpoint
C / 34°F
Humidity
93%
Altimeter
29.46" Hg
Pressure
997.62 hPa
Current Rain
0.01"